Poplar Ridge, NY (13139)

11:11 AM EST on December 09, 2016 (GMT -0500)
Sunnyside Dairy | | Change Station
Active Advisory: Lake Effect Snow Advisory

Elev 1168 ft 42.73 °N, 76.57 °W | Updated 47 seconds ago

Overcast
Overcast
25.3 °F
Feels Like 17 °F
N
8.0
Wind Variable Wind from SSE
Gusts 13.0 mph

Today
High -- | Low -- °F
--% Chance of Precip.
Yesterday
High -- | Low -- °F
Precip. -- in
Pressure 30.20 in
Visibility 2.0 miles
Clouds Overcast 1500 ft
Windchill 17 °F
Dew Point 22 °F
Humidity 87%
Rainfall 0.00 in
Snow Depth Not available.
7:25 AM 4:32 PM
Waxing Gibbous, 75% visible
METAR KITH 091556Z 32012KT 2SM -SN OVC015 M04/M07 A3015 RMK AO2 SLP226 P0000 T10391072
Pressure 30.20 in
Visibility 2.0 miles
Clouds Overcast 1500 ft
Windchill 17 °F
Dew Point 22 °F
Humidity 87%
Rainfall 0.00 in
Snow Depth Not available.
7:25 AM 4:32 PM
Waxing Gibbous, 75% visible
METAR KITH 091556Z 32012KT 2SM -SN OVC015 M04/M07 A3015 RMK AO2 SLP226 P0000 T10391072

10-Day Weather Forecast

Almanac

Astronomy

Dec. 09, 2016 Rise Set
Actual Time
Civil Twilight
Nautical Twilight
Astronomical Twilight
Moon
Length of Visible Light
Length of Day
Tomorrow will be .
, % of the Moon is Illuminated

Today's Extremes

State Highs State Lows

Community

WunderPhotos

Upload Photos

1,956,462 photos uploaded!

WunderBlog® & News

Nearby

Air Quality

  Air Quality AQ Index Pollutant
Not available.

Snow Depth

Station Depth Elevation

Earthquake Activity

City Distance Mag. Time & Date
Minimum magnitude displayed is 2.5.

Coastal Water Temperatures

Place Temperature

Stations

Nearby Weather Stations

Station Location Temp. Windchill Dew Point Humidity Wind Precip. Elev Updated Type
                   

Watches & Warnings

Lake Effect Snow Advisory
Issued: 3:24 AM EST Dec. 9, 2016 – National Weather Service

... Lake effect Snow Advisory remains in effect until 7 am EST
Saturday...

* locations... southern Cayuga... Onondaga... Madison... Cortland...
Chenango and Otsego counties.

* Accumulations... total snow accumulation of 3 to 6 inches... with
much of the snowfall occurring early this morning and again
overnight. The higher terrain in southern Onondaga and southern
Madison counties will see the most snowfall.

* Impacts... lake effect snow and gusty winds will produce blowing
and drifting snow which will make travel difficult at times.

* Winds... northwest 10 to 15 mph with gusts up to 30 mph.

* Temperatures... in the upper 20s today but dropping into the
teens overnight.

Precautionary/preparedness actions...

A lake effect Snow Advisory Means Lake-effect snow is forecast
that will make travel difficult in some areas. Lake-effect snow
showers typically align themselves in bands and will likely be
intense enough to drop several inches in localized areas. Use
caution when traveling.